Terminal Aerodrome Forecast
Issued by NWS

Home | Current Version | Previous Version | Graphics & Text | Print | Product List | Glossary On
Versions: 1 2 3 4 5 6 7 8 9 10 11 12 13 14 15 16 17 18 19 20 21 22 23 24 25 26 27 28 29 30 31 32 33 34 35 36 37 38
000
FTUS43 KLOT 210800 CCA
TAFORD
TAF COR
KORD 210854Z 2109/2212 21004KT P6SM VCTS SCT025CB BKN090 OVC250
      TEMPO 2110/2112 5SM -TSRA BR SCT020CB BKN025
     FM211200 10006KT P6SM VCTS SCT035 BKN050CB
     FM211700 21010G18KT P6SM SCT030 BKN100
     FM220100 18005KT P6SM VCTS SCT040CB BKN100
      TEMPO 2201/2205 -TSRA BKN035CB
     FM220600 22007KT P6SM SCT050 BKN100 PROB30 2206/2212 5SM -TSRA
      BKN050CB=

USA.gov is the U.S. government's official web portal to all federal, state and local government web resources and services.